Time;durP1;ratioP1;P1;durP2;ratioP2;P2;SDS_P1;SDS_P2;PMS_P1;PMS_P2;Temp;Humidity;BMP_temperature;BMP_pressure;BME280_temperature;BME280_humidity;BME280_pressure;Samples;Min_cycle;Max_cycle;Signal;HPM_P1;HPM_P2
2022/08/18 00:01:18;;;;;;;;;51.33;42.33;;;;;;;;5120298;27;45382;-78
2022/08/18 00:03:44;;;;;;;;;51.33;41.67;;;;;;;;5119940;27;46055;-78
2022/08/18 00:06:09;;;;;;;;;55.33;43.00;;;;;;;;5119707;27;45326;-78
2022/08/18 00:08:34;;;;;;;;;52.00;43.33;;;;;;;;5119863;27;45241;-78
2022/08/18 00:11:00;;;;;;;;;55.67;45.00;;;;;;;;5120220;27;45413;-78
2022/08/18 00:13:25;;;;;;;;;58.67;45.67;;;;;;;;5119738;27;45509;-78
2022/08/18 00:15:50;;;;;;;;;62.00;46.33;;;;;;;;5119176;27;45434;-79
2022/08/18 00:18:15;;;;;;;;;59.00;46.00;;;;;;;;5119672;27;45220;-78
2022/08/18 00:20:41;;;;;;;;;55.00;44.67;;;;;;;;5120102;27;45356;-79
2022/08/18 00:23:06;;;;;;;;;62.33;47.00;;;;;;;;5119610;27;45535;-79
2022/08/18 00:25:31;;;;;;;;;58.75;48.00;;;;;;;;5119719;27;45287;-77
2022/08/18 00:27:56;;;;;;;;;59.67;46.67;;;;;;;;5119715;27;45347;-77
2022/08/18 00:30:22;;;;;;;;;55.33;44.00;;;;;;;;5120035;27;45943;-78
2022/08/18 00:32:49;;;;;;;;;56.00;46.67;;;;;;;;5119508;27;45544;-78
2022/08/18 00:35:19;;;;;;;;;58.33;46.00;;;;;;;;5119471;27;45358;-78
2022/08/18 00:37:45;;;;;;;;;56.33;44.33;;;;;;;;5118855;27;45322;-78
2022/08/18 00:40:12;;;;;;;;;60.00;46.67;;;;;;;;5119153;27;45348;-78
2022/08/18 00:42:45;;;;;;;;;59.67;46.33;;;;;;;;5119175;27;46241;-78
2022/08/18 00:45:13;;;;;;;;;56.67;44.33;;;;;;;;5119221;27;45380;-78
2022/08/18 00:47:38;;;;;;;;;56.33;42.67;;;;;;;;5119414;27;45343;-78
2022/08/18 00:50:05;;;;;;;;;56.00;45.00;;;;;;;;5119428;27;45293;-79
2022/08/18 00:52:31;;;;;;;;;57.33;44.33;;;;;;;;5118831;27;46516;-78
2022/08/18 00:54:57;;;;;;;;;57.33;47.00;;;;;;;;5119174;27;45360;-78
2022/08/18 00:57:22;;;;;;;;;55.67;44.33;;;;;;;;5119240;27;45335;-78
2022/08/18 00:59:52;;;;;;;;;55.67;44.67;;;;;;;;5119480;27;45256;-78
2022/08/18 01:02:19;;;;;;;;;60.33;47.00;;;;;;;;5118979;27;47607;-78
2022/08/18 01:05:07;;;;;;;;;57.00;44.67;;;;;;;;5118980;27;45439;-78
2022/08/18 01:07:35;;;;;;;;;56.33;45.00;;;;;;;;5118817;27;45383;-78
2022/08/18 01:10:01;;;;;;;;;53.00;41.33;;;;;;;;5119160;27;45498;-78
2022/08/18 01:12:27;;;;;;;;;55.67;43.67;;;;;;;;5118604;27;47258;-78
2022/08/18 01:14:53;;;;;;;;;51.67;40.67;;;;;;;;5118856;27;45368;-79
2022/08/18 01:22:47;;;;;;;;;57.33;46.67;;;;;;;;5118552;27;45445;-78
2022/08/18 01:28:00;;;;;;;;;58.00;46.67;;;;;;;;5118706;27;45395;-78
2022/08/18 01:30:26;;;;;;;;;56.00;44.67;;;;;;;;5118946;27;45375;-78
2022/08/18 01:32:51;;;;;;;;;55.00;43.00;;;;;;;;5117794;27;45251;-78
2022/08/18 01:35:18;;;;;;;;;57.67;45.67;;;;;;;;5118561;27;45307;-78
2022/08/18 01:37:43;;;;;;;;;59.00;45.33;;;;;;;;5118715;27;45469;-78
2022/08/18 01:40:10;;;;;;;;;54.67;45.00;;;;;;;;5118852;27;45413;-79
2022/08/18 01:42:36;;;;;;;;;58.67;46.67;;;;;;;;5118570;27;45568;-78
2022/08/18 01:45:03;;;;;;;;;56.33;44.67;;;;;;;;5118330;27;45349;-79
2022/08/18 01:47:30;;;;;;;;;59.33;48.00;;;;;;;;5118693;27;45243;-79
2022/08/18 01:49:57;;;;;;;;;57.33;45.33;;;;;;;;5119841;27;45299;-78
2022/08/18 01:52:22;;;;;;;;;60.67;48.33;;;;;;;;5121819;27;47287;-78
2022/08/18 01:54:47;;;;;;;;;62.75;49.75;;;;;;;;5121960;27;45444;-78
2022/08/18 01:57:14;;;;;;;;;57.33;47.33;;;;;;;;5122218;27;45348;-78
2022/08/18 01:59:40;;;;;;;;;62.50;49.00;;;;;;;;5122485;27;45507;-78
2022/08/18 02:02:05;;;;;;;;;65.33;48.33;;;;;;;;5121738;27;47269;-78
2022/08/18 02:04:33;;;;;;;;;64.50;50.75;;;;;;;;5121643;27;45817;-78
2022/08/18 02:07:00;;;;;;;;;63.25;48.50;;;;;;;;5122061;27;45531;-78
2022/08/18 02:09:25;;;;;;;;;59.75;47.75;;;;;;;;5121806;27;45505;-78
2022/08/18 02:11:50;;;;;;;;;68.25;52.50;;;;;;;;5121701;27;45544;-79
2022/08/18 02:14:16;;;;;;;;;59.25;47.50;;;;;;;;5121872;27;45482;-78
2022/08/18 02:16:41;;;;;;;;;69.00;52.25;;;;;;;;5121837;27;45389;-78
2022/08/18 02:19:06;;;;;;;;;64.75;51.50;;;;;;;;5122126;27;45225;-78
2022/08/18 02:21:31;;;;;;;;;64.75;50.75;;;;;;;;5121453;27;45466;-78
2022/08/18 02:23:56;;;;;;;;;65.00;50.50;;;;;;;;5103071;27;45490;-78
2022/08/18 02:26:22;;;;;;;;;67.50;50.50;;;;;;;;5121617;27;45425;-78
2022/08/18 02:28:48;;;;;;;;;70.75;52.50;;;;;;;;5121717;27;45506;-78
2022/08/18 02:31:14;;;;;;;;;72.25;52.50;;;;;;;;5121474;27;45657;-78
2022/08/18 02:33:40;;;;;;;;;68.50;53.00;;;;;;;;5121416;27;45269;-78
2022/08/18 02:36:06;;;;;;;;;68.50;53.75;;;;;;;;5121251;27;45719;-78
2022/08/18 02:38:31;;;;;;;;;70.00;53.25;;;;;;;;5121509;27;45410;-78
2022/08/18 02:40:57;;;;;;;;;69.25;51.00;;;;;;;;5121363;27;46792;-78
2022/08/18 02:43:23;;;;;;;;;71.75;54.00;;;;;;;;5121356;27;45344;-80
2022/08/18 02:45:48;;;;;;;;;67.75;52.50;;;;;;;;5121362;27;45366;-79
2022/08/18 02:48:13;;;;;;;;;74.25;52.75;;;;;;;;5103025;27;45242;-76
2022/08/18 02:50:47;;;;;;;;;66.75;51.50;;;;;;;;5121131;27;45314;-76
2022/08/18 02:53:21;;;;;;;;;68.33;52.00;;;;;;;;5120989;27;45294;-78
2022/08/18 02:55:47;;;;;;;;;69.00;50.50;;;;;;;;5121372;27;45223;-78
2022/08/18 02:58:12;;;;;;;;;68.75;52.50;;;;;;;;5121254;27;45515;-78
2022/08/18 03:00:38;;;;;;;;;64.50;50.00;;;;;;;;5120375;27;46491;-78
2022/08/18 03:03:03;;;;;;;;;61.75;48.75;;;;;;;;5120336;27;45429;-78
2022/08/18 03:05:29;;;;;;;;;65.50;49.00;;;;;;;;5121072;27;45337;-77
2022/08/18 03:07:54;;;;;;;;;68.25;51.50;;;;;;;;5120970;27;45508;-78
2022/08/18 03:10:19;;;;;;;;;63.50;48.75;;;;;;;;5120817;27;46669;-79
2022/08/18 03:12:44;;;;;;;;;64.50;49.00;;;;;;;;5120738;27;45417;-78
2022/08/18 03:15:11;;;;;;;;;68.50;49.00;;;;;;;;5121065;27;45304;-79
2022/08/18 03:17:37;;;;;;;;;65.25;50.25;;;;;;;;5120787;27;45456;-78
2022/08/18 03:20:03;;;;;;;;;64.75;50.75;;;;;;;;5120625;27;47335;-77
2022/08/18 03:22:28;;;;;;;;;68.25;50.50;;;;;;;;5120522;27;45469;-77
2022/08/18 03:24:53;;;;;;;;;64.33;50.00;;;;;;;;5120777;27;45456;-78
2022/08/18 03:27:18;;;;;;;;;64.00;47.00;;;;;;;;5120849;27;45353;-77
2022/08/18 03:29:43;;;;;;;;;61.00;48.33;;;;;;;;5120524;27;45415;-78
2022/08/18 03:32:09;;;;;;;;;66.33;48.67;;;;;;;;5120492;27;45389;-78
2022/08/18 03:34:34;;;;;;;;;63.00;46.67;;;;;;;;5120554;27;45383;-77
2022/08/18 03:37:00;;;;;;;;;58.67;45.33;;;;;;;;5120586;27;45368;-77
2022/08/18 03:39:26;;;;;;;;;66.75;51.00;;;;;;;;5120475;27;45367;-80
2022/08/18 03:41:56;;;;;;;;;63.33;48.67;;;;;;;;5120377;27;45178;-77
2022/08/18 03:44:22;;;;;;;;;63.00;47.67;;;;;;;;5120440;27;45381;-77
2022/08/18 03:46:48;;;;;;;;;61.67;48.33;;;;;;;;5120408;27;45484;-78
2022/08/18 03:49:14;;;;;;;;;60.00;48.00;;;;;;;;5101703;27;46212;-77
2022/08/18 03:51:42;;;;;;;;;60.00;48.00;;;;;;;;5120058;27;45247;-77
2022/08/18 03:54:08;;;;;;;;;60.00;46.67;;;;;;;;5120104;27;45502;-77
2022/08/18 03:56:35;;;;;;;;;60.33;48.00;;;;;;;;5120473;27;45306;-77
2022/08/18 03:59:02;;;;;;;;;64.67;49.33;;;;;;;;5119859;27;46664;-77
2022/08/18 04:01:29;;;;;;;;;60.33;46.33;;;;;;;;5119955;27;45426;-77
2022/08/18 04:03:56;;;;;;;;;62.33;49.00;;;;;;;;5120179;27;45227;-77
2022/08/18 04:06:23;;;;;;;;;65.67;48.67;;;;;;;;5120213;27;45453;-77
2022/08/18 04:08:52;;;;;;;;;66.00;51.00;;;;;;;;5119299;27;45469;-78
2022/08/18 04:11:17;;;;;;;;;60.33;46.67;;;;;;;;5119874;27;45231;-78
2022/08/18 04:13:43;;;;;;;;;69.75;51.75;;;;;;;;5119458;27;45419;-76
2022/08/18 04:16:08;;;;;;;;;66.50;50.00;;;;;;;;5119971;27;45422;-78
2022/08/18 04:18:34;;;;;;;;;69.25;50.75;;;;;;;;5119669;27;46477;-76
2022/08/18 04:21:03;;;;;;;;;65.00;50.50;;;;;;;;5119713;27;45335;-77
2022/08/18 04:23:28;;;;;;;;;67.50;49.50;;;;;;;;5119829;27;45510;-77
2022/08/18 04:25:57;;;;;;;;;68.50;50.25;;;;;;;;5119883;27;45426;-77
2022/08/18 04:28:22;;;;;;;;;69.75;51.50;;;;;;;;5119514;27;46101;-77
2022/08/18 04:30:48;;;;;;;;;67.50;49.50;;;;;;;;5119565;27;45405;-77
2022/08/18 04:33:13;;;;;;;;;69.33;52.00;;;;;;;;5119593;27;45446;-77
2022/08/18 04:35:38;;;;;;;;;65.67;49.33;;;;;;;;5119703;27;45379;-77
2022/08/18 04:38:04;;;;;;;;;59.25;46.50;;;;;;;;5119301;27;47077;-77
2022/08/18 04:40:32;;;;;;;;;70.25;51.75;;;;;;;;5119439;27;45386;-77
2022/08/18 04:42:57;;;;;;;;;66.67;50.33;;;;;;;;5119624;27;45330;-78
2022/08/18 04:45:23;;;;;;;;;72.25;52.50;;;;;;;;5119514;27;45142;-77
2022/08/18 04:47:48;;;;;;;;;71.50;54.00;;;;;;;;5119443;27;46464;-78
2022/08/18 04:50:13;;;;;;;;;72.50;51.75;;;;;;;;5119262;27;45267;-77
2022/08/18 04:55:22;;;;;;;;;69.67;51.33;;;;;;;;5119410;27;45256;-77
2022/08/18 04:57:47;;;;;;;;;66.25;51.25;;;;;;;;5119088;27;45377;-77
2022/08/18 05:00:13;;;;;;;;;67.50;51.50;;;;;;;;5119159;27;45249;-78
2022/08/18 05:02:38;;;;;;;;;59.50;46.75;;;;;;;;5119340;27;45437;-78
2022/08/18 05:05:04;;;;;;;;;70.75;51.25;;;;;;;;5119252;27;45175;-77
2022/08/18 05:07:30;;;;;;;;;71.00;54.00;;;;;;;;5118661;27;45429;-78
2022/08/18 05:09:55;;;;;;;;;63.00;47.33;;;;;;;;5119024;27;45300;-78
2022/08/18 05:12:20;;;;;;;;;68.25;50.25;;;;;;;;5119089;27;45502;-77
2022/08/18 05:14:46;;;;;;;;;66.33;51.00;;;;;;;;5119358;27;45277;-78
2022/08/18 05:17:12;;;;;;;;;60.67;46.00;;;;;;;;5118742;27;46524;-78
2022/08/18 05:19:38;;;;;;;;;64.25;50.00;;;;;;;;5119077;27;45384;-77
2022/08/18 05:22:06;;;;;;;;;61.33;49.00;;;;;;;;5118752;27;45268;-78
2022/08/18 05:24:34;;;;;;;;;65.00;48.00;;;;;;;;5118313;27;45449;-78
2022/08/18 05:26:59;;;;;;;;;61.00;48.25;;;;;;;;5118537;27;46475;-78
2022/08/18 05:29:24;;;;;;;;;69.50;51.25;;;;;;;;5118413;27;45169;-78
2022/08/18 05:31:51;;;;;;;;;63.00;48.50;;;;;;;;5118906;27;45283;-77
2022/08/18 05:34:17;;;;;;;;;63.67;48.67;;;;;;;;5119042;27;45331;-77
2022/08/18 05:36:43;;;;;;;;;69.75;50.75;;;;;;;;5118395;27;45478;-77
2022/08/18 05:39:20;;;;;;;;;66.00;50.50;;;;;;;;5118631;27;45392;-77
2022/08/18 05:41:54;;;;;;;;;69.25;51.00;;;;;;;;5118620;27;45407;-77
2022/08/18 05:44:23;;;;;;;;;63.75;49.50;;;;;;;;5118746;27;45279;-78
2022/08/18 05:46:48;;;;;;;;;63.67;48.67;;;;;;;;5118426;27;45595;-77
2022/08/18 05:49:14;;;;;;;;;62.75;47.25;;;;;;;;5099967;27;45419;-77
2022/08/18 05:51:42;;;;;;;;;69.50;51.00;;;;;;;;5118444;27;45199;-77
2022/08/18 05:56:54;;;;;;;;;62.25;47.75;;;;;;;;5118317;27;45394;-77
2022/08/18 05:59:19;;;;;;;;;68.75;50.75;;;;;;;;5118385;27;45237;-77
2022/08/18 06:01:50;;;;;;;;;67.75;51.75;;;;;;;;5118300;27;45426;-77
2022/08/18 06:04:22;;;;;;;;;65.00;50.50;;;;;;;;5118755;27;45349;-77
2022/08/18 06:06:48;;;;;;;;;68.75;52.25;;;;;;;;5118075;27;45279;-76
2022/08/18 06:09:16;;;;;;;;;68.50;52.50;;;;;;;;5117873;27;45407;-77
2022/08/18 06:11:42;;;;;;;;;73.00;51.75;;;;;;;;5118180;27;45434;-77
2022/08/18 06:14:07;;;;;;;;;71.25;52.75;;;;;;;;5118256;27;45433;-77
2022/08/18 06:16:32;;;;;;;;;58.67;48.67;;;;;;;;5118139;27;45474;-77
2022/08/18 06:19:01;;;;;;;;;60.25;47.25;;;;;;;;5118035;27;45359;-77
2022/08/18 06:21:35;;;;;;;;;57.33;43.00;;;;;;;;5118235;27;45313;-77
2022/08/18 06:24:06;;;;;;;;;68.75;50.50;;;;;;;;5118244;27;45256;-78
2022/08/18 06:26:55;;;;;;;;;66.50;49.75;;;;;;;;5117759;27;46301;-76
2022/08/18 06:29:38;;;;;;;;;66.67;49.00;;;;;;;;5117340;27;45390;-78
2022/08/18 06:32:22;;;;;;;;;64.33;47.67;;;;;;;;5117908;27;45508;-80
2022/08/18 06:35:02;;;;;;;;;70.75;50.25;;;;;;;;5118208;27;45419;-80
2022/08/18 06:37:33;;;;;;;;;63.67;50.00;;;;;;;;5120536;27;45466;-81
2022/08/18 06:39:58;;;;;;;;;59.67;47.67;;;;;;;;5121438;27;45253;-81
2022/08/18 06:42:29;;;;;;;;;60.00;48.00;;;;;;;;5121211;27;45333;-77
2022/08/18 06:44:57;;;;;;;;;64.67;47.00;;;;;;;;5121605;27;45419;-78
2022/08/18 06:47:41;;;;;;;;;62.67;48.00;;;;;;;;5121121;27;47489;-76
2022/08/18 06:50:14;;;;;;;;;64.67;50.67;;;;;;;;5121482;27;45385;-76
2022/08/18 06:52:51;;;;;;;;;55.33;42.00;;;;;;;;5120960;27;45457;-77
2022/08/18 06:55:29;;;;;;;;;58.67;45.33;;;;;;;;5121315;27;45375;-79
2022/08/18 06:57:56;;;;;;;;;59.33;45.67;;;;;;;;5121010;27;45348;-80
2022/08/18 07:00:24;;;;;;;;;58.33;44.33;;;;;;;;5121257;27;45307;-78
2022/08/18 07:02:52;;;;;;;;;64.00;46.33;;;;;;;;5121165;27;45315;-80
2022/08/18 07:05:19;;;;;;;;;58.00;46.33;;;;;;;;5121193;27;45372;-79
2022/08/18 07:07:45;;;;;;;;;52.67;41.33;;;;;;;;5120778;27;46435;-78
2022/08/18 07:10:28;;;;;;;;;59.33;46.00;;;;;;;;5120851;27;45413;-78
2022/08/18 07:13:04;;;;;;;;;58.00;45.67;;;;;;;;5120926;27;45303;-78
2022/08/18 07:15:31;;;;;;;;;57.00;44.67;;;;;;;;5121204;27;45466;-78
2022/08/18 07:18:03;;;;;;;;;58.00;41.00;;;;;;;;5120933;27;45377;-78
2022/08/18 07:20:29;;;;;;;;;58.00;42.67;;;;;;;;5121893;27;45400;-78
2022/08/18 07:23:02;;;;;;;;;56.00;43.00;;;;;;;;5121031;27;45358;-78
2022/08/18 07:25:36;;;;;;;;;60.67;45.67;;;;;;;;5121381;27;45464;-79
2022/08/18 07:28:01;;;;;;;;;58.33;43.67;;;;;;;;5121185;27;45230;-78
2022/08/18 07:30:29;;;;;;;;;53.67;41.67;;;;;;;;5120494;27;45412;-79
2022/08/18 07:32:57;;;;;;;;;58.67;44.00;;;;;;;;5121554;27;45305;-77
2022/08/18 07:35:24;;;;;;;;;63.50;47.50;;;;;;;;5121254;27;45211;-77
2022/08/18 07:38:01;;;;;;;;;59.00;45.00;;;;;;;;5122278;27;45562;-77
2022/08/18 07:40:36;;;;;;;;;64.67;46.33;;;;;;;;5121853;27;45222;-76
2022/08/18 07:43:07;;;;;;;;;53.67;41.67;;;;;;;;5122254;27;45624;-77
2022/08/18 07:45:41;;;;;;;;;56.33;44.33;;;;;;;;5121958;27;45512;-76
2022/08/18 07:48:20;;;;;;;;;55.00;43.00;;;;;;;;5119541;27;46363;-78
2022/08/18 07:50:51;;;;;;;;;57.33;42.00;;;;;;;;5120349;27;45174;-78
2022/08/18 07:53:28;;;;;;;;;52.33;41.33;;;;;;;;5120106;27;45425;-77
2022/08/18 07:56:00;;;;;;;;;60.75;46.00;;;;;;;;5120765;27;45229;-77
2022/08/18 07:58:33;;;;;;;;;54.67;42.67;;;;;;;;5121414;27;46400;-76
2022/08/18 08:01:04;;;;;;;;;53.67;44.00;;;;;;;;5121240;27;45334;-77
2022/08/18 08:03:53;;;;;;;;;60.33;44.67;;;;;;;;5120127;27;45385;-77
2022/08/18 08:06:22;;;;;;;;;55.00;43.33;;;;;;;;5120176;27;45416;-79
2022/08/18 08:08:50;;;;;;;;;57.00;43.67;;;;;;;;5119542;27;46568;-77
2022/08/18 08:11:32;;;;;;;;;47.67;36.67;;;;;;;;5120134;27;45162;-76
2022/08/18 08:14:16;;;;;;;;;50.67;40.67;;;;;;;;5120497;27;45269;-77
2022/08/18 08:16:49;;;;;;;;;52.33;42.67;;;;;;;;5120819;27;45529;-77
2022/08/18 08:19:21;;;;;;;;;51.00;43.00;;;;;;;;5119818;27;46258;-76
2022/08/18 08:21:56;;;;;;;;;51.67;41.33;;;;;;;;5120155;27;45268;-77
2022/08/18 08:24:31;;;;;;;;;55.00;44.00;;;;;;;;5119872;27;45528;-77
2022/08/18 08:27:06;;;;;;;;;57.33;42.33;;;;;;;;5119855;27;45485;-78
2022/08/18 08:29:38;;;;;;;;;56.50;44.50;;;;;;;;5119454;27;46082;-79
2022/08/18 08:32:24;;;;;;;;;52.33;42.67;;;;;;;;5119961;27;45518;-78
2022/08/18 08:34:51;;;;;;;;;55.33;44.67;;;;;;;;5119236;27;45213;-78
2022/08/18 08:37:43;;;;;;;;;55.33;43.67;;;;;;;;5119774;27;45157;-78
2022/08/18 08:40:14;;;;;;;;;49.67;39.00;;;;;;;;5116521;27;45463;-79
2022/08/18 08:42:57;;;;;;;;;50.67;39.00;;;;;;;;5119427;27;46435;-79
2022/08/18 08:45:25;;;;;;;;;53.33;42.33;;;;;;;;5119503;27;45390;-79
2022/08/18 08:48:03;;;;;;;;;48.67;40.67;;;;;;;;5119717;27;45318;-79
2022/08/18 08:50:33;;;;;;;;;53.00;40.67;;;;;;;;5119395;27;45416;-79
2022/08/18 08:53:18;;;;;;;;;50.67;41.33;;;;;;;;5119058;27;45351;-80
2022/08/18 08:55:46;;;;;;;;;53.67;43.67;;;;;;;;5118525;27;45410;-79
2022/08/18 08:58:30;;;;;;;;;50.33;41.33;;;;;;;;5119467;27;45210;-80
2022/08/18 09:00:56;;;;;;;;;52.67;41.00;;;;;;;;5118202;27;46233;-81
2022/08/18 09:03:37;;;;;;;;;51.33;41.00;;;;;;;;5119095;27;45360;-80
2022/08/18 09:06:10;;;;;;;;;53.00;43.00;;;;;;;;5119111;27;45465;-81
2022/08/18 09:08:39;;;;;;;;;46.00;39.33;;;;;;;;5118847;27;45431;-80
2022/08/18 09:11:04;;;;;;;;;48.00;40.33;;;;;;;;5118935;27;45419;-81
2022/08/18 09:13:41;;;;;;;;;53.67;43.00;;;;;;;;5118973;27;45435;-80
2022/08/18 09:16:18;;;;;;;;;50.33;39.33;;;;;;;;5118976;27;45348;-83
2022/08/18 09:19:02;;;;;;;;;51.00;39.33;;;;;;;;5119113;27;45244;-81
2022/08/18 09:21:30;;;;;;;;;59.33;44.33;;;;;;;;5118663;27;46115;-82
2022/08/18 09:24:14;;;;;;;;;51.67;34.00;;;;;;;;5118654;27;45247;-82
2022/08/18 09:26:39;;;;;;;;;49.67;37.33;;;;;;;;5118880;27;45501;-81
2022/08/18 09:29:17;;;;;;;;;48.00;39.00;;;;;;;;5118775;27;45277;-78
2022/08/18 09:31:44;;;;;;;;;50.33;42.33;;;;;;;;5118622;27;46656;-78
2022/08/18 09:34:23;;;;;;;;;49.67;36.33;;;;;;;;5118193;27;45357;-81
2022/08/18 09:36:48;;;;;;;;;49.67;36.67;;;;;;;;5118841;27;45375;-83
2022/08/18 09:42:27;;;;;;;;;53.50;41.00;;;;;;;;5118507;27;45424;-82
2022/08/18 09:44:54;;;;;;;;;56.50;43.25;;;;;;;;5055028;28;45531;-79
2022/08/18 09:47:19;;;;;;;;;48.33;39.00;;;;;;;;5055068;28;45437;-79
2022/08/18 09:49:45;;;;;;;;;50.67;38.67;;;;;;;;5055129;28;45501;-76
2022/08/18 09:52:22;;;;;;;;;49.67;39.00;;;;;;;;5054912;28;46241;-79
2022/08/18 09:55:25;;;;;;;;;43.33;36.67;;;;;;;;5054725;28;45573;-79
2022/08/18 09:58:09;;;;;;;;;46.33;38.67;;;;;;;;5054770;28;45212;-77
2022/08/18 10:00:34;;;;;;;;;45.67;38.33;;;;;;;;5055264;28;45405;-79
2022/08/18 10:03:02;;;;;;;;;44.67;37.33;;;;;;;;5054587;28;46337;-78
2022/08/18 10:05:29;;;;;;;;;51.00;40.50;;;;;;;;5054808;28;45504;-77
2022/08/18 10:08:15;;;;;;;;;49.00;41.33;;;;;;;;5054430;28;45457;-79
2022/08/18 10:10:41;;;;;;;;;41.33;34.67;;;;;;;;5055260;28;45546;-79
2022/08/18 10:13:09;;;;;;;;;40.33;35.33;;;;;;;;5058225;28;45358;-78
2022/08/18 10:15:57;;;;;;;;;37.33;33.00;;;;;;;;5058233;28;45328;-78
2022/08/18 10:18:25;;;;;;;;;50.00;40.50;;;;;;;;5058253;28;45345;-78
2022/08/18 10:20:50;;;;;;;;;40.67;36.00;;;;;;;;5060909;27;45515;-79
2022/08/18 10:23:34;;;;;;;;;46.50;38.00;;;;;;;;5100847;27;47590;-78
2022/08/18 10:25:59;;;;;;;;;37.67;33.00;;;;;;;;5100895;27;45423;-77
2022/08/18 10:28:51;;;;;;;;;41.25;35.25;;;;;;;;5101115;27;45260;-77
2022/08/18 10:31:16;;;;;;;;;43.00;34.00;;;;;;;;5084469;27;45563;-77
2022/08/18 10:34:00;;;;;;;;;43.50;33.50;;;;;;;;5100665;27;46884;-77
2022/08/18 10:36:38;;;;;;;;;40.25;34.00;;;;;;;;5100919;27;45348;-78
2022/08/18 10:39:05;;;;;;;;;39.25;35.50;;;;;;;;5100815;27;45290;-76
2022/08/18 10:41:30;;;;;;;;;36.75;33.75;;;;;;;;5100682;27;45389;-79
2022/08/18 10:43:57;;;;;;;;;37.50;33.00;;;;;;;;5099147;27;47420;-77
2022/08/18 10:46:25;;;;;;;;;33.75;32.00;;;;;;;;5100702;27;45391;-77
2022/08/18 10:49:02;;;;;;;;;34.00;32.00;;;;;;;;5100519;27;45318;-77
2022/08/18 10:51:27;;;;;;;;;37.50;32.00;;;;;;;;5100858;27;45377;-78
2022/08/18 10:54:09;;;;;;;;;34.25;29.50;;;;;;;;5100173;27;45431;-77
2022/08/18 10:56:44;;;;;;;;;43.25;36.75;;;;;;;;5100627;27;45278;-78
2022/08/18 10:59:18;;;;;;;;;33.75;29.75;;;;;;;;5100591;27;45319;-77
2022/08/18 11:02:02;;;;;;;;;30.25;27.75;;;;;;;;5100813;27;45205;-77
2022/08/18 11:04:33;;;;;;;;;28.25;27.25;;;;;;;;5100271;27;45453;-77
2022/08/18 11:07:03;;;;;;;;;35.00;31.00;;;;;;;;5100501;27;45470;-79
2022/08/18 11:09:29;;;;;;;;;28.75;28.50;;;;;;;;5120686;27;45231;-79
2022/08/18 11:11:56;;;;;;;;;28.33;25.33;;;;;;;;5121034;27;45282;-78
2022/08/18 11:14:25;;;;;;;;;22.00;22.00;;;;;;;;5120654;27;48535;-79
2022/08/18 11:17:02;;;;;;;;;30.00;28.00;;;;;;;;5120703;27;45377;-79
2022/08/18 11:19:34;;;;;;;;;25.67;25.67;;;;;;;;5120926;27;45255;-79
2022/08/18 11:22:01;;;;;;;;;22.00;20.33;;;;;;;;5120250;27;45260;-78
2022/08/18 11:24:28;;;;;;;;;22.33;22.00;;;;;;;;5120284;27;47555;-77
2022/08/18 11:26:58;;;;;;;;;26.67;20.67;;;;;;;;5120683;27;45453;-79
2022/08/18 11:29:34;;;;;;;;;29.67;28.00;;;;;;;;5120930;27;45526;-77
2022/08/18 11:32:03;;;;;;;;;26.67;25.33;;;;;;;;5102218;27;45497;-79
2022/08/18 11:34:36;;;;;;;;;26.00;26.00;;;;;;;;5120406;27;45486;-79
2022/08/18 11:37:04;;;;;;;;;30.00;28.00;;;;;;;;5120339;27;45279;-79
2022/08/18 11:39:29;;;;;;;;;27.00;24.33;;;;;;;;5120546;27;45452;-78
2022/08/18 11:41:56;;;;;;;;;25.33;24.67;;;;;;;;5120720;27;45358;-79
2022/08/18 11:44:23;;;;;;;;;30.33;26.00;;;;;;;;5120573;27;45321;-79
2022/08/18 11:46:53;;;;;;;;;31.00;26.67;;;;;;;;5120323;27;45314;-79
2022/08/18 11:49:24;;;;;;;;;24.67;23.33;;;;;;;;5120325;27;45287;-80
2022/08/18 11:51:54;;;;;;;;;23.67;22.67;;;;;;;;5102076;27;45433;-79
2022/08/18 11:54:21;;;;;;;;;27.33;25.33;;;;;;;;5119815;27;46320;-77
2022/08/18 11:56:46;;;;;;;;;24.33;22.00;;;;;;;;5120134;27;45260;-79
2022/08/18 11:59:24;;;;;;;;;26.00;23.00;;;;;;;;5120262;27;45259;-78
2022/08/18 12:01:50;;;;;;;;;25.00;23.67;;;;;;;;5120475;27;45295;-78
2022/08/18 12:04:19;;;;;;;;;35.00;27.00;;;;;;;;5119930;27;46088;-80
2022/08/18 12:06:58;;;;;;;;;23.67;23.67;;;;;;;;5119952;27;45436;-81
2022/08/18 12:09:23;;;;;;;;;25.67;22.67;;;;;;;;5119794;27;45567;-78
2022/08/18 12:11:51;;;;;;;;;28.33;26.67;;;;;;;;5120402;27;45318;-79
2022/08/18 12:14:19;;;;;;;;;31.00;27.67;;;;;;;;5119911;27;47223;-81
2022/08/18 12:16:44;;;;;;;;;26.33;23.33;;;;;;;;5119730;27;45481;-81
2022/08/18 12:19:11;;;;;;;;;28.00;26.33;;;;;;;;5119903;27;45298;-81
2022/08/18 12:21:41;;;;;;;;;30.33;28.33;;;;;;;;5120120;27;45485;-79
2022/08/18 12:24:09;;;;;;;;;30.33;29.00;;;;;;;;5119576;27;46227;-79
2022/08/18 12:26:34;;;;;;;;;25.67;23.67;;;;;;;;5119496;27;45396;-79
2022/08/18 12:29:00;;;;;;;;;26.33;25.00;;;;;;;;5119709;27;45434;-78
2022/08/18 12:31:25;;;;;;;;;23.33;20.33;;;;;;;;5119924;27;45466;-78
2022/08/18 12:33:50;;;;;;;;;22.67;21.00;;;;;;;;5119574;27;46511;-78
2022/08/18 12:36:15;;;;;;;;;24.33;20.00;;;;;;;;5119606;27;45321;-77
2022/08/18 12:38:42;;;;;;;;;25.33;23.33;;;;;;;;5119785;27;45424;-78
2022/08/18 12:41:10;;;;;;;;;23.33;22.00;;;;;;;;5119893;27;45292;-79
2022/08/18 12:43:36;;;;;;;;;28.33;26.67;;;;;;;;5119299;27;45333;-78
2022/08/18 12:46:01;;;;;;;;;26.33;24.67;;;;;;;;5119499;27;45310;-79
2022/08/18 12:48:28;;;;;;;;;21.00;21.00;;;;;;;;5119606;27;45353;-79
2022/08/18 12:50:54;;;;;;;;;51.75;41.00;;;;;;;;5119575;27;45243;-79
2022/08/18 12:53:19;;;;;;;;;33.00;30.33;;;;;;;;5119024;27;45323;-78
2022/08/18 12:55:44;;;;;;;;;25.67;25.67;;;;;;;;5119345;27;45314;-78
2022/08/18 12:58:10;;;;;;;;;30.00;28.33;;;;;;;;5119432;27;45220;-78
2022/08/18 13:00:36;;;;;;;;;32.67;30.00;;;;;;;;5119412;27;45374;-76
2022/08/18 13:03:01;;;;;;;;;27.67;26.33;;;;;;;;5119087;27;46327;-76
2022/08/18 13:05:27;;;;;;;;;23.33;23.33;;;;;;;;5119297;27;45267;-76
2022/08/18 13:07:52;;;;;;;;;29.33;25.00;;;;;;;;5119048;27;45465;-77
2022/08/18 13:10:17;;;;;;;;;23.33;21.33;;;;;;;;5119226;27;45272;-79
2022/08/18 13:12:43;;;;;;;;;22.00;20.33;;;;;;;;5119022;27;46549;-78
2022/08/18 13:15:09;;;;;;;;;21.00;19.67;;;;;;;;5118981;27;45264;-79
2022/08/18 13:17:36;;;;;;;;;20.67;17.67;;;;;;;;5119201;27;45435;-77
2022/08/18 13:20:05;;;;;;;;;22.00;20.67;;;;;;;;5119167;27;45301;-80
2022/08/18 13:22:30;;;;;;;;;24.00;21.00;;;;;;;;5118748;27;46693;-78
2022/08/18 13:24:55;;;;;;;;;25.33;22.67;;;;;;;;5118515;27;45479;-79
2022/08/18 13:27:21;;;;;;;;;21.00;21.00;;;;;;;;5119105;27;45285;-79
2022/08/18 13:29:47;;;;;;;;;28.00;22.67;;;;;;;;5119263;27;45431;-80
2022/08/18 13:32:13;;;;;;;;;18.67;18.00;;;;;;;;5118704;27;47097;-79
2022/08/18 13:34:39;;;;;;;;;20.67;17.67;;;;;;;;5118824;27;45280;-78
2022/08/18 13:37:04;;;;;;;;;21.67;18.33;;;;;;;;5118791;27;45330;-79
2022/08/18 13:39:30;;;;;;;;;22.33;21.00;;;;;;;;5118792;27;45453;-77
2022/08/18 13:41:55;;;;;;;;;22.67;20.33;;;;;;;;5118476;27;46089;-77
2022/08/18 13:44:21;;;;;;;;;23.33;20.33;;;;;;;;5118657;27;45261;-77
2022/08/18 13:46:47;;;;;;;;;21.67;16.00;;;;;;;;5121426;27;45349;-78
2022/08/18 13:49:14;;;;;;;;;22.00;18.67;;;;;;;;5122521;27;45358;-77
2022/08/18 13:51:40;;;;;;;;;18.67;18.67;;;;;;;;5122141;27;46170;-76
2022/08/18 13:54:06;;;;;;;;;17.67;15.33;;;;;;;;5122168;27;45173;-78
2022/08/18 13:56:31;;;;;;;;;17.33;16.67;;;;;;;;5122227;27;45274;-78
2022/08/18 13:58:56;;;;;;;;;20.00;15.00;;;;;;;;5122583;27;45445;-78
2022/08/18 14:01:21;;;;;;;;;14.00;14.00;;;;;;;;5122360;27;46286;-78
2022/08/18 14:03:47;;;;;;;;;20.67;18.33;;;;;;;;5122010;27;45226;-79
2022/08/18 14:06:12;;;;;;;;;17.00;16.67;;;;;;;;5122093;27;45189;-77
2022/08/18 14:08:37;;;;;;;;;20.67;17.00;;;;;;;;5122065;27;45303;-77
2022/08/18 14:11:03;;;;;;;;;20.00;16.33;;;;;;;;5121824;27;45424;-77
2022/08/18 14:13:28;;;;;;;;;13.67;13.67;;;;;;;;5121710;27;45284;-77
2022/08/18 14:15:54;;;;;;;;;19.00;18.67;;;;;;;;5122022;27;45545;-77
2022/08/18 14:18:20;;;;;;;;;18.67;17.33;;;;;;;;5122048;27;45404;-77
2022/08/18 14:28:57;;;;;;;;;14.67;14.67;;;;;;;;5121974;27;45227;-78
2022/08/18 14:31:22;;;;;;;;;16.33;14.67;;;;;;;;5121500;27;45360;-77
2022/08/18 14:33:47;;;;;;;;;16.00;15.00;;;;;;;;5121461;27;45476;-77
2022/08/18 14:36:14;;;;;;;;;17.00;15.00;;;;;;;;5121856;27;45195;-77
2022/08/18 14:38:39;;;;;;;;;19.00;15.00;;;;;;;;5121808;27;45426;-77
2022/08/18 14:41:06;;;;;;;;;17.00;17.00;;;;;;;;5121197;27;46071;-79
2022/08/18 14:43:34;;;;;;;;;16.67;15.67;;;;;;;;5121641;27;45310;-77
2022/08/18 14:45:59;;;;;;;;;16.33;16.00;;;;;;;;5121616;27;45188;-78
2022/08/18 14:48:26;;;;;;;;;16.67;16.33;;;;;;;;5121605;27;45211;-76
2022/08/18 14:50:54;;;;;;;;;13.67;13.33;;;;;;;;5121490;27;46673;-78